Athol, Massachusetts
Current Conditions -  °F | °C
As of 3:52 PM on Monday 22 Dec 2014 (Local Time) from KORE Reporting Station
Overcast Overcast  
Wind Chill: 33°   Ceiling: 1900
Heat Index: 39°   Visibility: 10mi
Dew Point: 32°   Wind: 8mph
Humidity: 76%   Direction: 110°ESE
Pressure: 30.29"   Gusts: NA
Location:  42.59°N, 72.23°W
Report Text: KORE 222052Z AUTO 11007KT 10SM OVC019 04/00 A3029 RMK AO2 SLP265 T00390000 55009
Loading
Personal Weather Stations






























Interactive Weather Map New forecast layout! Learn more

10-Day Weather Forecast

Advertisements
Track Severe Weather on mobile